sensor_id;sensor_type;location;lat;lon;timestamp;P1;durP1;ratioP1;P2;durP2;ratioP2
46729;SDS011;32476;50.002;11.854;2024-03-25T13:58:43;4.63;;;1.60;;
46729;SDS011;32476;50.002;11.854;2024-03-25T14:01:12;6.47;;;2.17;;
46729;SDS011;32476;50.002;11.854;2024-03-25T14:03:37;5.67;;;2.00;;
46729;SDS011;32476;50.002;11.854;2024-03-25T14:06:04;3.67;;;1.70;;
46729;SDS011;32476;50.002;11.854;2024-03-25T14:08:31;6.03;;;2.87;;
46729;SDS011;32476;50.002;11.854;2024-03-25T14:10:57;4.67;;;2.80;;
46729;SDS011;32476;50.002;11.854;2024-03-25T14:13:25;3.97;;;2.30;;
46729;SDS011;32476;50.002;11.854;2024-03-25T14:15:53;2.90;;;1.57;;
46729;SDS011;32476;50.002;11.854;2024-03-25T14:18:18;5.10;;;3.20;;
46729;SDS011;32476;50.002;11.854;2024-03-25T14:20:44;2.57;;;1.30;;
46729;SDS011;32476;50.002;11.854;2024-03-25T14:23:13;5.60;;;1.93;;
46729;SDS011;32476;50.002;11.854;2024-03-25T14:25:39;3.37;;;1.30;;
46729;SDS011;32476;50.002;11.854;2024-03-25T14:28:05;4.57;;;1.83;;
46729;SDS011;32476;50.002;11.854;2024-03-25T14:30:33;7.80;;;1.80;;
46729;SDS011;32476;50.002;11.854;2024-03-25T14:32:59;2.60;;;1.40;;
46729;SDS011;32476;50.002;11.854;2024-03-25T14:35:25;8.17;;;4.43;;
46729;SDS011;32476;50.002;11.854;2024-03-25T14:37:52;5.93;;;1.67;;
46729;SDS011;32476;50.002;11.854;2024-03-25T14:40:19;6.47;;;2.40;;
46729;SDS011;32476;50.002;11.854;2024-03-25T14:42:45;3.33;;;1.47;;
46729;SDS011;32476;50.002;11.854;2024-03-25T14:45:12;3.13;;;1.90;;
46729;SDS011;32476;50.002;11.854;2024-03-25T14:47:38;5.13;;;2.13;;
46729;SDS011;32476;50.002;11.854;2024-03-25T14:50:04;4.03;;;1.87;;
46729;SDS011;32476;50.002;11.854;2024-03-25T14:52:32;4.03;;;1.40;;
46729;SDS011;32476;50.002;11.854;2024-03-25T14:54:58;2.83;;;1.70;;
46729;SDS011;32476;50.002;11.854;2024-03-25T14:57:24;2.87;;;1.30;;
46729;SDS011;32476;50.002;11.854;2024-03-25T14:59:51;2.77;;;1.33;;
46729;SDS011;32476;50.002;11.854;2024-03-25T15:02:17;3.40;;;1.53;;
46729;SDS011;32476;50.002;11.854;2024-03-25T15:04:43;4.00;;;1.73;;
46729;SDS011;32476;50.002;11.854;2024-03-25T15:07:11;3.80;;;1.30;;
46729;SDS011;32476;50.002;11.854;2024-03-25T15:09:37;5.57;;;1.60;;
46729;SDS011;32476;50.002;11.854;2024-03-25T15:12:06;3.73;;;1.47;;
46729;SDS011;32476;50.002;11.854;2024-03-25T15:14:33;3.10;;;1.30;;
46729;SDS011;32476;50.002;11.854;2024-03-25T15:17:03;2.87;;;1.37;;
46729;SDS011;32476;50.002;11.854;2024-03-25T15:19:29;4.60;;;1.43;;
46729;SDS011;32476;50.002;11.854;2024-03-25T15:21:57;2.47;;;1.47;;
46729;SDS011;32476;50.002;11.854;2024-03-25T15:24:22;5.33;;;2.00;;
46729;SDS011;32476;50.002;11.854;2024-03-25T15:26:48;5.80;;;1.40;;
46729;SDS011;32476;50.002;11.854;2024-03-25T15:29:16;3.10;;;1.30;;
46729;SDS011;32476;50.002;11.854;2024-03-25T15:31:42;2.37;;;1.30;;
46729;SDS011;32476;50.002;11.854;2024-03-25T15:34:08;3.67;;;1.53;;
46729;SDS011;32476;50.002;11.854;2024-03-25T15:36:35;3.20;;;1.50;;
46729;SDS011;32476;50.002;11.854;2024-03-25T15:39:01;4.40;;;1.30;;
46729;SDS011;32476;50.002;11.854;2024-03-25T15:41:28;5.50;;;1.50;;
46729;SDS011;32476;50.002;11.854;2024-03-25T15:43:55;3.20;;;1.37;;
46729;SDS011;32476;50.002;11.854;2024-03-25T15:46:21;4.40;;;1.47;;
46729;SDS011;32476;50.002;11.854;2024-03-25T15:48:47;6.13;;;1.53;;
46729;SDS011;32476;50.002;11.854;2024-03-25T15:51:15;4.03;;;1.50;;
46729;SDS011;32476;50.002;11.854;2024-03-25T15:53:43;3.50;;;1.30;;
46729;SDS011;32476;50.002;11.854;2024-03-25T15:56:09;4.70;;;1.53;;
46729;SDS011;32476;50.002;11.854;2024-03-25T15:58:37;5.60;;;1.53;;
46729;SDS011;32476;50.002;11.854;2024-03-25T16:01:03;3.70;;;1.63;;
46729;SDS011;32476;50.002;11.854;2024-03-25T16:03:29;3.40;;;1.50;;
46729;SDS011;32476;50.002;11.854;2024-03-25T16:05:58;2.97;;;1.40;;
46729;SDS011;32476;50.002;11.854;2024-03-25T16:08:24;5.10;;;1.63;;
46729;SDS011;32476;50.002;11.854;2024-03-25T16:10:50;2.70;;;1.40;;
46729;SDS011;32476;50.002;11.854;2024-03-25T16:13:18;3.33;;;1.80;;
46729;SDS011;32476;50.002;11.854;2024-03-25T16:15:44;2.77;;;1.37;;
46729;SDS011;32476;50.002;11.854;2024-03-25T16:18:10;4.47;;;1.90;;
46729;SDS011;32476;50.002;11.854;2024-03-25T16:20:37;3.50;;;1.60;;
46729;SDS011;32476;50.002;11.854;2024-03-25T16:23:03;4.33;;;1.70;;
46729;SDS011;32476;50.002;11.854;2024-03-25T16:25:29;4.60;;;1.80;;
46729;SDS011;32476;50.002;11.854;2024-03-25T16:27:57;3.67;;;1.50;;
46729;SDS011;32476;50.002;11.854;2024-03-25T16:30:23;4.63;;;1.60;;
46729;SDS011;32476;50.002;11.854;2024-03-25T16:32:49;5.07;;;1.30;;
46729;SDS011;32476;50.002;11.854;2024-03-25T16:35:17;3.90;;;1.70;;
46729;SDS011;32476;50.002;11.854;2024-03-25T16:37:43;2.47;;;1.50;;
46729;SDS011;32476;50.002;11.854;2024-03-25T16:40:11;4.53;;;2.37;;
46729;SDS011;32476;50.002;11.854;2024-03-25T16:42:38;6.83;;;3.80;;
46729;SDS011;32476;50.002;11.854;2024-03-25T16:45:04;5.57;;;2.77;;
46729;SDS011;32476;50.002;11.854;2024-03-25T16:47:31;6.67;;;2.17;;
46729;SDS011;32476;50.002;11.854;2024-03-25T16:49:58;3.27;;;1.70;;
46729;SDS011;32476;50.002;11.854;2024-03-25T16:52:24;2.80;;;1.60;;
46729;SDS011;32476;50.002;11.854;2024-03-25T16:54:50;5.10;;;2.10;;
46729;SDS011;32476;50.002;11.854;2024-03-25T16:57:18;4.50;;;2.07;;
46729;SDS011;32476;50.002;11.854;2024-03-25T16:59:44;6.30;;;1.90;;
46729;SDS011;32476;50.002;11.854;2024-03-25T17:02:10;2.33;;;1.77;;
46729;SDS011;32476;50.002;11.854;2024-03-25T17:04:37;4.87;;;1.90;;
46729;SDS011;32476;50.002;11.854;2024-03-25T17:07:03;3.17;;;1.70;;
46729;SDS011;32476;50.002;11.854;2024-03-25T17:09:29;3.70;;;1.70;;
46729;SDS011;32476;50.002;11.854;2024-03-25T17:11:58;2.73;;;1.73;;
46729;SDS011;32476;50.002;11.854;2024-03-25T17:14:24;2.33;;;1.40;;
46729;SDS011;32476;50.002;11.854;2024-03-25T17:16:50;3.10;;;1.57;;
46729;SDS011;32476;50.002;11.854;2024-03-25T17:19:18;2.07;;;1.57;;
46729;SDS011;32476;50.002;11.854;2024-03-25T17:21:44;4.10;;;2.30;;
46729;SDS011;32476;50.002;11.854;2024-03-25T17:24:10;7.53;;;2.60;;
46729;SDS011;32476;50.002;11.854;2024-03-25T17:26:38;11.77;;;4.90;;
46729;SDS011;32476;50.002;11.854;2024-03-25T17:29:04;10.27;;;5.83;;
46729;SDS011;32476;50.002;11.854;2024-03-25T17:31:32;10.13;;;6.90;;
46729;SDS011;32476;50.002;11.854;2024-03-25T17:33:59;11.53;;;6.57;;
46729;SDS011;32476;50.002;11.854;2024-03-25T17:36:27;10.97;;;7.00;;
46729;SDS011;32476;50.002;11.854;2024-03-25T17:38:52;9.00;;;5.70;;
46729;SDS011;32476;50.002;11.854;2024-03-25T17:41:20;5.30;;;3.20;;
46729;SDS011;32476;50.002;11.854;2024-03-25T17:43:46;5.03;;;3.57;;
46729;SDS011;32476;50.002;11.854;2024-03-25T17:46:12;9.80;;;4.53;;
46729;SDS011;32476;50.002;11.854;2024-03-25T17:48:39;9.20;;;4.70;;
46729;SDS011;32476;50.002;11.854;2024-03-25T17:51:05;8.40;;;4.33;;
46729;SDS011;32476;50.002;11.854;2024-03-25T17:53:31;9.83;;;4.87;;
46729;SDS011;32476;50.002;11.854;2024-03-25T17:55:59;7.83;;;5.70;;
46729;SDS011;32476;50.002;11.854;2024-03-25T17:58:25;12.33;;;7.63;;
46729;SDS011;32476;50.002;11.854;2024-03-25T18:00:51;11.20;;;7.33;;
46729;SDS011;32476;50.002;11.854;2024-03-25T18:03:20;10.83;;;6.40;;
46729;SDS011;32476;50.002;11.854;2024-03-25T18:05:46;9.73;;;5.30;;
46729;SDS011;32476;50.002;11.854;2024-03-25T18:08:12;7.60;;;5.03;;
46729;SDS011;32476;50.002;11.854;2024-03-25T18:10:39;10.50;;;5.80;;
46729;SDS011;32476;50.002;11.854;2024-03-25T18:13:08;12.67;;;7.30;;
46729;SDS011;32476;50.002;11.854;2024-03-25T18:15:46;12.47;;;7.33;;
46729;SDS011;32476;50.002;11.854;2024-03-25T18:18:18;9.30;;;5.20;;
46729;SDS011;32476;50.002;11.854;2024-03-25T18:20:46;12.17;;;6.23;;
46729;SDS011;32476;50.002;11.854;2024-03-25T18:23:14;15.00;;;7.47;;
46729;SDS011;32476;50.002;11.854;2024-03-25T18:25:42;20.97;;;9.33;;
46729;SDS011;32476;50.002;11.854;2024-03-25T18:28:08;13.33;;;8.57;;
46729;SDS011;32476;50.002;11.854;2024-03-25T18:30:35;12.53;;;7.77;;
46729;SDS011;32476;50.002;11.854;2024-03-25T18:33:03;9.80;;;5.93;;
46729;SDS011;32476;50.002;11.854;2024-03-25T18:35:34;8.77;;;5.73;;
46729;SDS011;32476;50.002;11.854;2024-03-25T18:38:07;14.03;;;7.00;;
46729;SDS011;32476;50.002;11.854;2024-03-25T18:40:33;12.57;;;7.20;;
46729;SDS011;32476;50.002;11.854;2024-03-25T18:43:00;11.93;;;8.57;;
46729;SDS011;32476;50.002;11.854;2024-03-25T18:45:28;10.23;;;7.23;;
46729;SDS011;32476;50.002;11.854;2024-03-25T18:47:54;15.47;;;7.70;;
46729;SDS011;32476;50.002;11.854;2024-03-25T18:50:20;12.50;;;7.13;;
46729;SDS011;32476;50.002;11.854;2024-03-25T18:52:47;11.30;;;7.47;;
46729;SDS011;32476;50.002;11.854;2024-03-25T18:55:13;12.67;;;8.00;;
46729;SDS011;32476;50.002;11.854;2024-03-25T18:57:39;10.07;;;6.90;;
46729;SDS011;32476;50.002;11.854;2024-03-25T19:00:07;24.33;;;13.93;;
46729;SDS011;32476;50.002;11.854;2024-03-25T19:02:35;8.33;;;5.23;;
46729;SDS011;32476;50.002;11.854;2024-03-25T19:05:03;9.80;;;6.03;;
46729;SDS011;32476;50.002;11.854;2024-03-25T19:07:31;36.47;;;20.27;;
46729;SDS011;32476;50.002;11.854;2024-03-25T19:09:59;20.60;;;12.20;;
46729;SDS011;32476;50.002;11.854;2024-03-25T19:12:25;24.53;;;13.17;;
46729;SDS011;32476;50.002;11.854;2024-03-25T19:14:53;20.67;;;11.77;;
46729;SDS011;32476;50.002;11.854;2024-03-25T19:17:20;14.13;;;9.33;;
46729;SDS011;32476;50.002;11.854;2024-03-25T19:19:46;21.13;;;10.83;;
46729;SDS011;32476;50.002;11.854;2024-03-25T19:22:14;43.63;;;21.00;;
46729;SDS011;32476;50.002;11.854;2024-03-25T19:24:40;26.37;;;14.23;;
46729;SDS011;32476;50.002;11.854;2024-03-25T19:27:06;28.47;;;14.37;;
46729;SDS011;32476;50.002;11.854;2024-03-25T19:29:35;30.43;;;16.93;;
46729;SDS011;32476;50.002;11.854;2024-03-25T19:32:01;31.00;;;16.17;;
46729;SDS011;32476;50.002;11.854;2024-03-25T19:34:32;29.83;;;15.43;;
46729;SDS011;32476;50.002;11.854;2024-03-25T19:37:00;34.87;;;13.53;;
46729;SDS011;32476;50.002;11.854;2024-03-25T19:39:27;30.43;;;15.50;;
46729;SDS011;32476;50.002;11.854;2024-03-25T19:41:56;28.93;;;13.73;;
46729;SDS011;32476;50.002;11.854;2024-03-25T19:44:25;24.53;;;12.90;;
46729;SDS011;32476;50.002;11.854;2024-03-25T19:46:52;25.53;;;13.10;;
46729;SDS011;32476;50.002;11.854;2024-03-25T19:49:18;23.80;;;11.03;;
46729;SDS011;32476;50.002;11.854;2024-03-25T19:51:46;20.27;;;10.47;;
46729;SDS011;32476;50.002;11.854;2024-03-25T19:54:12;23.40;;;14.10;;
46729;SDS011;32476;50.002;11.854;2024-03-25T19:56:38;22.37;;;13.40;;
46729;SDS011;32476;50.002;11.854;2024-03-25T19:59:06;26.57;;;12.60;;
46729;SDS011;32476;50.002;11.854;2024-03-25T20:01:32;15.30;;;9.53;;
